Airfield :
LOGIN :

Register | Disclaimer

   EN    FR    IT 

 










Legend :    VFR   Marginal VFR   IFR   Intensive IFR   Very Intensive IFR
Visi :
Ceiling :
>= 8 km
>= 3000ft
5 to 8 km
1000 to 3000 ft
1500m to 5 km
500 to 1000 ft
800 to 1500m
200 to 500 ft
< 800m
< 200 ft
Symbols :   Thunderstorms  Fog  Heavy snow  Heavy precipitations  Wind > 20 kt
SIGMETs :     Misc.  Thunderstorms  Icing  Turbulence  Mountain Waves  Volcanic Ashes






- Airport Elevation : 55 ft
- IATA code : DSA


EGCN - Robin Hood Doncaster Sheffield

CURRENT METAR :
  • 191220Z 23014KT 9999 FEW022 BKN031 11/08 Q0999

EXPIRED METARs :
  • 191150Z 22011KT 9999 BKN024 10/09 Q0999
  • 191120Z 18006KT 9999 FEW017 SCT023 BKN031 08/08 Q0999
  • 191050Z 19007KT 9999 SCT015 BKN021 08/08 Q1000 RERA
  • 191020Z 20011KT 5000 RA BKN022 08/08 Q1000
  • 190950Z 20010KT 9999 FEW017 SCT024 BKN032 08/08 Q1000

TAF TAF EGCN
Valid from the 19 at 12:00 until the 20 at 12:00 UTC


191055Z 1912/2012 20013KT 9999 SCT030
TEMPO 1912/1921 6000 -RA BKN010
PROB40
TEMPO 1912/1916 4000 RA BKN008
PROB30
TEMPO 1912/2012 21016G28KT
TEMPO 1921/2012 6000 RA BKN012
PROB40
TEMPO 1921/2004 3000 +RA BKN008



MET'MAP, your aeronautical weather chart ! - Copyright ORBIFLY December 2007 - Disclaimer

ORBIFLY MET'MAP TEAM :

Programming & Development : Alexandra Zaïnal
Concept & original design : Baudouin d'Aumeries
Assistance for programming : Marc-Olivier Méhu
Technical & hardware support : Manuel Goepfert

Contact : metmap@orbifly.com




SOURCES & CREDITS :

   NOAA